Terminal Aerodrome Forecast
Issued by NWS Twin Cities, MN

Home | Current Version | Previous Version | Text Only | Print | Product List | Glossary Off
Versions: 1 2 3 4 5 6 7 8 9 10 11 12 13 14 15 16 17 18 19 20 21 22 23 24 25 26 27 28

000
FTUS43 KMPX 260520
TAFMSP
TAF
KMSP 260520Z 2606/2712 13005KT P6SM BKN120 OVC180
      TEMPO 2609/2612 P6SM -RA
     FM261600 17008KT P6SM BKN040
     FM270100 14005KT P6SM SCT040=

USA.gov is the U.S. government's official web portal to all federal, state and local government web resources and services.